Pagrindinis puslapis
METAR-TAF:

METAR-TAF

Oro uostai :

Sveg, Švedija

platuma: 62-02-52N, ilguma: 014-25-22E, Aukštis: 359 m

Dabartinis oras

Ataskaita buvo paskelbta 27 minutes, ne 10:50 UTC
Vėjas 7 kt iš Pietų, svyruoja nuo Pietryčių ir Pietų/Pietvakarių
Temperatūra 17°C
Drėgmė 52%
Slėgis 1019 hPa
Matomumas 10 km arba daugiau
Mažai debesys ne aukštis 3900 ft
Išsisklaidę debesys ne aukštis 5700 ft

METAR: ESND 221050Z 17007KT 130V210 9999 FEW039 SCT057 17/07 Q1019

Laikas: 13:17 (11:17 UTC)


TAF: trūkstamas

Orai ataskaitas ir orų prognozės (METAR, TAF).

turimą stotys yra geltonos ir raudonos taškus žemėlapyje.

Perkelti pele per norėdami pamatyti stoties vardą.

Tada spustelėkite, norėdami matyti oro stebėjimo ir prognozės.

Norėdami pakeisti žemėlapį: spustelėkite ant žalios mygtukų su juodo kryžiaus žemyn,; žalią mygtuką su brūkšneliu, jei norite nutolinti; arba žalių rodyklių gretimoms žemėlapius.


METAR-TAF: